首页
METAR-TAF:

METAR-TAF

机场 :

斯瓦尔巴朗伊尔机场

朗伊爾城, 挪威

纬度: 78-15N, 经度: 015-28E, 海拔: 2米

当前天气观测

该预报发布于25分钟前的08:20 UTC
风速7节,风向西
温度 5°C
湿度 93%
气压 1008 hPa
能見度: 5000
散云层高于200英尺
多云层高于500英尺
小毛毛雨

METAR: ENSB 140820Z 26007KT 5000 -DZ SCT002 BKN005 05/04 Q1008 TEMPO 4000 DZ SCT002 BKN003 RMK WIND 1400FT 25005KT

时间: 10:45 (08:45 UTC)

预报

预报有效从14日的 07点(UTC)到 15日的 06点(UTC)
风速8节,风向西转西南
能见度10公里或以上
多云层高于800英尺
短暂存在
从 14日的 07点(UTC)到 15日的 06点(UTC)
能見度: 4000
散云层高于200英尺
多云层高于300英尺
毛毛雨

TAF: ENSB 1407/1506 24008KT 9999 BKN008 TEMPO 1407/1506 4000 DZ SCT002 BKN003

超过4000个机场的气象观测和天气预报(METAR&TAF报告)。

可查询的气象台以黄色和红色小点在地图上表示。

将鼠标移到小点上方,可查看气象台名称。

然后点击查看天气观测和预报。

如需切换地图:点击带黑十字的绿色按钮放大地图;点击带横线的绿色按钮缩小地图;或者点击绿色箭头查看邻近地区的地图。


METAR-TAF: